Terminal Aerodrome Forecast
Issued by NWS

Home | Current Version | Previous Version | Text Only | Print | Product List | Glossary On
Versions: 1 2 3 4 5 6 7 8 9 10 11 12 13 14 15 16
000
FTUS42 KMHX 211100 AAA
TAFPGV
TAF AMD
KPGV 211146Z 2112/2212 00000KT 1SM BR BKN002
     FM211230 24006KT P6SM SCT050
     FM220200 31004KT P6SM SCT080
      AMD LTD TO CLD VIS AND WIND=

USA.gov is the U.S. government's official web portal to all federal, state and local government web resources and services.